Time;durP1;ratioP1;P1;durP2;ratioP2;P2;SDS_P1;SDS_P2;PMS_P1;PMS_P2;Temp;Humidity;BMP_temperature;BMP_pressure;BME280_temperature;BME280_humidity;BME280_pressure;Samples;Min_cycle;Max_cycle;Signal;HPM_P1;HPM_P2
2021/06/08 00:00:31;;;;;;;64.65;43.55;;;15.80;99.90;;;;;;5130777;27;20030;-44
2021/06/08 00:02:57;;;;;;;65.82;44.38;;;15.80;99.90;;;;;;5131419;27;20434;-44
2021/06/08 00:05:23;;;;;;;65.28;45.05;;;15.80;99.90;;;;;;5129653;27;20054;-45
2021/06/08 00:07:49;;;;;;;60.75;42.38;;;15.80;99.90;;;;;;5122523;27;20023;-43
2021/06/08 00:10:17;;;;;;;64.57;44.03;;;15.90;99.90;;;;;;5130390;27;20047;-45
2021/06/08 00:12:43;;;;;;;59.20;41.50;;;15.90;99.90;;;;;;5131217;27;20023;-45
2021/06/08 00:15:09;;;;;;;67.25;44.22;;;15.90;99.90;;;;;;5131687;27;20063;-43
2021/06/08 00:17:35;;;;;;;63.63;45.35;;;15.90;99.90;;;;;;5131257;27;20068;-43
2021/06/08 00:20:02;;;;;;;64.45;44.33;;;15.90;99.90;;;;;;5130175;27;20443;-45
2021/06/08 00:22:30;;;;;;;62.92;43.08;;;15.90;99.90;;;;;;5130859;27;20038;-45
2021/06/08 00:24:56;;;;;;;61.00;42.22;;;15.90;99.90;;;;;;5129215;27;20257;-45
2021/06/08 00:27:22;;;;;;;67.93;43.75;;;16.00;99.90;;;;;;5130288;27;20497;-45
2021/06/08 00:29:47;;;;;;;66.05;44.65;;;15.90;99.90;;;;;;5129246;27;20031;-45
2021/06/08 00:32:12;;;;;;;65.50;45.30;;;16.00;99.90;;;;;;5130358;27;20076;-46
2021/06/08 00:34:38;;;;;;;68.07;46.13;;;16.00;99.90;;;;;;5130532;27;20328;-43
2021/06/08 00:37:04;;;;;;;64.97;44.70;;;16.00;99.90;;;;;;5120134;27;20534;-44
2021/06/08 00:39:29;;;;;;;66.25;44.10;;;16.00;99.90;;;;;;5115593;27;20038;-45
2021/06/08 00:41:55;;;;;;;63.58;42.20;;;16.00;99.90;;;;;;5121960;27;20498;-47
2021/06/08 00:44:20;;;;;;;62.83;44.20;;;16.00;99.90;;;;;;5130180;27;20044;-45
2021/06/08 00:46:47;;;;;;;56.92;41.50;;;16.00;99.90;;;;;;5116256;27;20016;-45
2021/06/08 00:49:13;;;;;;;74.40;44.67;;;16.00;99.90;;;;;;5128453;27;20024;-45
2021/06/08 00:51:40;;;;;;;65.68;45.28;;;16.00;99.90;;;;;;5130258;27;20030;-45
2021/06/08 00:54:07;;;;;;;55.50;40.33;;;15.90;99.90;;;;;;5122276;27;20016;-44
2021/06/08 00:56:34;;;;;;;66.97;43.88;;;15.90;99.90;;;;;;5121575;27;20042;-44
2021/06/08 00:58:59;;;;;;;68.30;45.67;;;15.90;99.90;;;;;;5128829;27;20103;-44
2021/06/08 01:01:25;;;;;;;59.97;40.97;;;15.80;99.90;;;;;;5113687;27;20110;-48
2021/06/08 01:03:50;;;;;;;56.83;40.53;;;15.80;99.90;;;;;;5125591;27;20518;-44
2021/06/08 01:06:16;;;;;;;64.15;45.92;;;15.70;99.90;;;;;;5129936;27;20031;-45
2021/06/08 01:08:41;;;;;;;66.25;44.47;;;15.70;99.90;;;;;;5118857;27;20024;-44
2021/06/08 01:11:07;;;;;;;68.72;46.55;;;15.70;99.90;;;;;;5123625;27;20031;-44
2021/06/08 01:13:32;;;;;;;74.40;49.17;;;15.60;99.90;;;;;;5109371;28;20412;-46
2021/06/08 01:15:58;;;;;;;64.00;43.15;;;15.60;99.90;;;;;;5109238;28;20497;-44
2021/06/08 01:18:23;;;;;;;65.50;46.42;;;15.60;99.90;;;;;;5103993;27;20015;-44
2021/06/08 01:20:59;;;;;;;64.30;44.13;;;15.50;99.90;;;;;;5120512;27;20030;-44
2021/06/08 01:23:26;;;;;;;73.13;48.20;;;15.50;99.90;;;;;;5129622;27;20023;-44
2021/06/08 01:25:52;;;;;;;69.22;46.33;;;15.50;99.90;;;;;;5120464;27;20137;-44
2021/06/08 01:28:19;;;;;;;70.32;47.15;;;15.50;99.90;;;;;;5119456;27;20110;-43
2021/06/08 01:30:46;;;;;;;62.42;45.45;;;15.50;99.90;;;;;;5128706;27;20395;-44
2021/06/08 01:33:11;;;;;;;68.18;45.25;;;15.40;99.90;;;;;;5129278;27;20024;-45
2021/06/08 01:35:39;;;;;;;63.50;44.15;;;15.40;99.90;;;;;;5129286;27;20230;-44
2021/06/08 01:38:05;;;;;;;69.97;47.47;;;15.40;99.90;;;;;;5129338;27;20030;-44
2021/06/08 01:40:31;;;;;;;66.03;44.17;;;15.30;99.90;;;;;;5110208;27;20028;-44
2021/06/08 01:42:56;;;;;;;65.68;45.67;;;15.30;99.90;;;;;;5125571;27;20030;-44
2021/06/08 01:45:22;;;;;;;71.43;48.85;;;15.30;99.90;;;;;;5129267;27;20027;-44
2021/06/08 01:47:48;;;;;;;72.63;47.00;;;15.30;99.90;;;;;;5129155;27;20023;-44
2021/06/08 01:50:13;;;;;;;74.05;46.50;;;15.30;99.90;;;;;;5128247;27;20649;-44
2021/06/08 01:53:01;;;;;;;69.43;46.50;;;15.40;99.90;;;;;;5128834;27;20027;-44
2021/06/08 01:55:34;;;;;;;62.95;45.10;;;15.40;99.90;;;;;;5128661;27;20019;-43
2021/06/08 01:58:22;;;;;;;69.70;46.78;;;15.40;99.90;;;;;;5129235;27;20011;-44
2021/06/08 02:00:56;;;;;;;70.85;46.38;;;15.40;99.90;;;;;;5128181;27;20019;-44
2021/06/08 02:03:33;;;;;;;66.43;44.67;;;15.40;99.90;;;;;;5128680;27;20034;-44
2021/06/08 02:06:14;;;;;;;57.33;41.55;;;15.40;99.90;;;;;;5127324;27;20028;-44
2021/06/08 02:08:53;;;;;;;67.30;45.67;;;15.40;99.90;;;;;;5121986;27;20024;-44
2021/06/08 02:11:57;;;;;;;64.32;45.42;;;15.40;99.90;;;;;;5118470;27;20868;-43
2021/06/08 02:14:27;;;;;;;74.35;48.05;;;15.40;99.90;;;;;;5129170;27;20122;-43
2021/06/08 02:16:57;;;;;;;64.95;46.33;;;15.30;99.90;;;;;;5127471;27;20019;-44
2021/06/08 02:19:24;;;;;;;64.43;43.78;;;15.40;99.90;;;;;;5127944;27;20035;-43
2021/06/08 02:21:55;;;;;;;67.57;43.38;;;15.30;99.90;;;;;;5128687;27;20038;-44
2021/06/08 02:24:24;;;;;;;72.13;47.20;;;15.40;99.90;;;;;;5127250;27;20076;-44
2021/06/08 02:26:54;;;;;;;64.85;45.20;;;15.30;99.90;;;;;;5115257;27;20023;-46
2021/06/08 02:29:21;;;;;;;73.97;46.15;;;15.30;99.90;;;;;;5119659;27;20288;-44
2021/06/08 02:31:48;;;;;;;68.22;46.25;;;15.30;99.90;;;;;;5128371;27;20107;-44
2021/06/08 02:34:15;;;;;;;66.20;44.03;;;15.30;99.90;;;;;;5128201;27;20099;-44
2021/06/08 02:36:42;;;;;;;65.65;44.17;;;15.40;99.90;;;;;;5127130;27;20019;-44
2021/06/08 02:39:08;;;;;;;78.90;52.25;;;15.30;99.90;;;;;;5122896;27;20053;-44
2021/06/08 02:41:34;;;;;;;72.88;50.70;;;15.30;99.90;;;;;;5119317;27;20019;-44
2021/06/08 02:44:01;;;;;;;80.28;52.40;;;15.30;99.90;;;;;;5128322;27;20380;-44
2021/06/08 02:46:27;;;;;;;68.80;47.53;;;15.40;99.90;;;;;;5128118;27;20023;-44
2021/06/08 02:48:54;;;;;;;70.80;47.55;;;15.40;99.90;;;;;;5126996;28;20376;-45
2021/06/08 02:51:21;;;;;;;61.88;42.70;;;15.40;99.90;;;;;;5128232;27;20031;-44
2021/06/08 02:53:47;;;;;;;68.40;45.42;;;15.40;99.90;;;;;;5132849;27;20509;-43
2021/06/08 02:56:13;;;;;;;71.60;47.53;;;15.40;99.90;;;;;;5132317;27;20098;-44
2021/06/08 02:58:43;;;;;;;62.45;45.47;;;15.50;99.90;;;;;;5132557;27;20114;-44
2021/06/08 03:01:12;;;;;;;73.05;46.92;;;15.50;99.90;;;;;;5131771;27;20019;-44
2021/06/08 03:03:41;;;;;;;64.00;43.33;;;15.50;99.90;;;;;;5131063;27;20023;-47
2021/06/08 03:06:14;;;;;;;63.42;45.28;;;15.50;99.90;;;;;;5132448;27;20504;-44
2021/06/08 03:08:51;;;;;;;71.32;49.25;;;15.50;99.90;;;;;;5132315;27;20210;-44
2021/06/08 03:11:24;;;;;;;61.85;43.20;;;15.50;99.90;;;;;;5121233;27;20031;-45
2021/06/08 03:13:51;;;;;;;60.15;44.58;;;15.50;99.90;;;;;;5132214;27;20029;-44
2021/06/08 03:16:18;;;;;;;56.97;41.90;;;15.50;99.90;;;;;;5132071;27;20080;-44
2021/06/08 03:18:48;;;;;;;69.82;46.83;;;15.60;99.90;;;;;;5132024;27;20041;-44
2021/06/08 03:21:27;;;;;;;60.50;43.70;;;15.60;99.90;;;;;;5131404;27;20162;-44
2021/06/08 03:23:56;;;;;;;61.60;43.55;;;15.60;99.90;;;;;;5131941;27;20019;-44
2021/06/08 03:26:23;;;;;;;62.25;43.13;;;15.60;99.90;;;;;;5131770;27;20019;-44
2021/06/08 03:28:51;;;;;;;65.05;43.45;;;15.70;99.90;;;;;;5132233;27;20023;-45
2021/06/08 03:31:18;;;;;;;56.10;38.88;;;15.60;99.90;;;;;;5130228;27;20046;-45
2021/06/08 03:33:45;;;;;;;67.85;45.67;;;15.70;99.90;;;;;;5131808;27;20039;-44
2021/06/08 03:36:12;;;;;;;57.17;42.03;;;15.70;99.90;;;;;;5131946;27;20015;-44
2021/06/08 03:38:39;;;;;;;62.75;43.38;;;15.70;99.90;;;;;;5130312;27;20075;-43
2021/06/08 03:41:04;;;;;;;53.70;39.85;;;15.70;99.90;;;;;;5117118;27;20560;-44
2021/06/08 03:43:30;;;;;;;66.68;46.30;;;15.70;99.90;;;;;;5131538;27;20106;-44
2021/06/08 03:45:56;;;;;;;64.53;44.58;;;15.80;99.90;;;;;;5131924;27;20465;-43
2021/06/08 03:48:22;;;;;;;65.00;44.83;;;15.70;99.90;;;;;;5131528;27;20023;-44
2021/06/08 03:50:50;;;;;;;58.35;41.83;;;15.70;99.90;;;;;;5131179;27;20034;-44
2021/06/08 03:53:16;;;;;;;57.45;41.60;;;15.80;99.90;;;;;;5131332;27;20062;-43
2021/06/08 03:55:42;;;;;;;60.83;44.97;;;15.80;99.90;;;;;;5131281;27;20046;-44
2021/06/08 03:58:13;;;;;;;57.20;43.17;;;15.80;99.90;;;;;;5131695;27;20071;-43
2021/06/08 04:00:40;;;;;;;69.00;46.97;;;15.80;99.90;;;;;;5130936;27;20023;-43
2021/06/08 04:03:09;;;;;;;60.95;43.03;;;15.70;99.90;;;;;;5131296;27;20023;-44
2021/06/08 04:05:35;;;;;;;60.50;42.55;;;15.80;99.90;;;;;;5113846;27;20047;-43
2021/06/08 04:08:03;;;;;;;65.88;43.65;;;15.80;99.90;;;;;;5101591;27;20114;-44
2021/06/08 04:10:28;;;;;;;56.88;39.75;;;15.90;99.90;;;;;;5098864;28;20035;-44
2021/06/08 04:13:02;;;;;;;54.10;38.63;;;15.90;99.90;;;;;;5100978;28;20019;-43
2021/06/08 04:15:29;;;;;;;59.45;42.58;;;15.90;99.90;;;;;;5099816;28;20465;-44
2021/06/08 04:17:55;;;;;;;53.75;39.45;;;15.90;99.90;;;;;;5099410;28;20101;-44
2021/06/08 04:20:21;;;;;;;65.85;42.60;;;15.90;99.90;;;;;;5100181;28;20473;-44
2021/06/08 04:22:47;;;;;;;56.33;39.03;;;16.00;99.90;;;;;;5098104;28;20031;-43
2021/06/08 04:25:16;;;;;;;57.97;41.17;;;16.00;99.90;;;;;;5102236;28;20027;-44
2021/06/08 04:27:42;;;;;;;67.28;45.60;;;16.00;99.90;;;;;;5097980;28;20016;-44
2021/06/08 04:30:09;;;;;;;66.78;43.80;;;16.10;99.90;;;;;;5119746;27;20103;-43
2021/06/08 04:32:35;;;;;;;55.03;39.33;;;16.10;99.90;;;;;;5130489;27;20019;-43
2021/06/08 04:35:04;;;;;;;54.72;38.70;;;16.10;99.90;;;;;;5129059;27;20106;-43
2021/06/08 04:37:30;;;;;;;64.50;44.90;;;16.10;99.90;;;;;;5130072;27;20396;-43
2021/06/08 04:39:56;;;;;;;58.97;41.17;;;16.10;99.90;;;;;;5106400;27;20027;-43
2021/06/08 04:42:22;;;;;;;54.63;39.97;;;16.10;99.90;;;;;;5102276;27;20027;-43
2021/06/08 04:44:49;;;;;;;51.75;39.15;;;16.10;99.90;;;;;;5099088;28;20019;-44
2021/06/08 04:47:20;;;;;;;51.80;38.33;;;16.10;99.90;;;;;;5100048;28;20081;-43
2021/06/08 04:49:46;;;;;;;;;;;16.10;99.90;;;;;;5098951;28;20425;-43
2021/06/08 04:52:12;;;;;;;56.90;40.97;;;16.20;99.90;;;;;;5098409;28;20005;-43
2021/06/08 04:54:39;;;;;;;54.85;39.17;;;16.20;99.90;;;;;;5089125;28;20122;-43
2021/06/08 04:57:06;;;;;;;56.08;40.92;;;16.20;99.90;;;;;;5089356;28;20024;-43
2021/06/08 04:59:40;;;;;;;57.97;39.35;;;16.20;99.90;;;;;;5088332;28;20036;-44
2021/06/08 05:02:16;;;;;;;47.13;36.42;;;16.20;99.90;;;;;;5087594;28;20509;-43
2021/06/08 05:04:43;;;;;;;55.25;40.00;;;16.30;99.90;;;;;;5101347;27;20553;-43
2021/06/08 05:07:12;;;;;;;49.83;37.05;;;16.30;99.90;;;;;;5121245;27;20064;-44
2021/06/08 05:09:46;;;;;;;49.10;38.40;;;16.40;99.90;;;;;;5128851;27;20027;-43
2021/06/08 05:12:14;;;;;;;50.65;37.22;;;16.50;99.90;;;;;;5123922;27;20030;-44
2021/06/08 05:14:49;;;;;;;52.03;36.45;;;16.60;99.90;;;;;;5081510;28;20020;-43
2021/06/08 05:17:18;;;;;;;51.70;37.35;;;16.60;99.90;;;;;;5095441;27;20016;-43
2021/06/08 05:19:46;;;;;;;47.20;35.88;;;16.70;99.90;;;;;;5095484;28;20016;-44
2021/06/08 05:22:14;;;;;;;53.53;37.60;;;16.70;99.90;;;;;;5116124;27;20523;-43
2021/06/08 05:24:40;;;;;;;47.85;36.88;;;16.80;99.90;;;;;;5108775;28;20034;-44
2021/06/08 05:27:08;;;;;;;51.88;39.30;;;16.80;99.90;;;;;;5105641;28;20032;-44
2021/06/08 05:29:34;;;;;;;57.33;39.13;;;16.80;99.90;;;;;;5107688;27;20020;-43
2021/06/08 05:31:59;;;;;;;44.50;33.65;;;16.80;99.90;;;;;;5106475;27;20477;-44
2021/06/08 05:34:26;;;;;;;57.95;39.50;;;16.80;99.90;;;;;;5108714;28;20068;-43
2021/06/08 05:36:51;;;;;;;48.80;34.22;;;16.80;99.90;;;;;;5100642;28;20020;-44
2021/06/08 05:39:17;;;;;;;64.03;41.20;;;16.80;99.90;;;;;;5087742;28;20433;-43
2021/06/08 05:41:42;;;;;;;50.10;36.72;;;16.80;99.90;;;;;;5110841;27;20084;-43
2021/06/08 05:44:11;;;;;;;49.20;36.53;;;16.90;99.90;;;;;;5127283;27;20023;-43
2021/06/08 05:46:38;;;;;;;56.22;37.47;;;16.90;99.90;;;;;;5129186;27;20015;-43
2021/06/08 05:49:07;;;;;;;52.95;35.53;;;16.90;99.90;;;;;;5129061;27;20207;-44
2021/06/08 05:51:35;;;;;;;58.75;37.63;;;17.00;99.90;;;;;;5122227;27;20397;-43
2021/06/08 05:54:04;;;;;;;58.67;39.00;;;17.00;99.90;;;;;;5108945;28;20465;-43
2021/06/08 05:56:34;;;;;;;51.63;36.58;;;17.00;99.90;;;;;;5097399;28;20031;-43
2021/06/08 05:59:00;;;;;;;46.60;33.35;;;17.10;99.90;;;;;;5103860;28;20047;-44
2021/06/08 06:01:27;;;;;;;45.20;34.35;;;17.10;99.90;;;;;;5107808;28;20027;-44
2021/06/08 06:03:53;;;;;;;49.38;34.55;;;17.10;99.90;;;;;;5103133;28;20370;-44
2021/06/08 06:06:19;;;;;;;52.55;36.53;;;17.20;99.90;;;;;;5101417;27;20015;-44
2021/06/08 06:08:45;;;;;;;55.75;38.15;;;17.20;99.90;;;;;;5098545;27;20378;-44
2021/06/08 06:11:14;;;;;;;47.72;35.38;;;17.20;99.90;;;;;;5109256;27;20236;-43
2021/06/08 06:13:54;;;;;;;54.35;39.90;;;17.20;99.90;;;;;;5121212;27;20034;-45
2021/06/08 06:16:21;;;;;;;62.72;43.45;;;17.20;99.90;;;;;;5097458;27;20054;-44
2021/06/08 06:18:47;;;;;;;55.80;40.38;;;17.30;99.90;;;;;;5116407;27;20023;-44
2021/06/08 06:21:14;;;;;;;44.55;34.28;;;17.30;99.90;;;;;;5108499;27;20036;-44
2021/06/08 06:23:40;;;;;;;46.97;34.63;;;17.30;99.90;;;;;;5095471;28;20043;-43
2021/06/08 06:26:06;;;;;;;54.22;41.20;;;17.40;99.90;;;;;;5094739;28;20024;-44
2021/06/08 06:28:32;;;;;;;59.80;43.10;;;17.40;99.90;;;;;;5099095;28;20214;-44
2021/06/08 06:30:58;;;;;;;57.20;41.75;;;17.50;99.90;;;;;;5098221;27;20176;-44
2021/06/08 06:33:24;;;;;;;51.85;38.08;;;17.40;99.90;;;;;;5089502;28;20118;-43
2021/06/08 06:35:50;;;;;;;52.40;40.08;;;17.40;99.90;;;;;;5095574;28;20028;-43
2021/06/08 06:38:17;;;;;;;47.80;35.60;;;17.60;99.90;;;;;;5097512;28;20038;-43
2021/06/08 06:40:45;;;;;;;46.97;35.50;;;17.60;99.90;;;;;;5094598;28;20386;-43
2021/06/08 06:43:18;;;;;;;44.65;35.50;;;17.60;99.90;;;;;;5098002;28;20328;-44
2021/06/08 06:45:44;;;;;;;52.65;37.20;;;17.60;99.90;;;;;;5098819;27;20032;-44
2021/06/08 06:48:13;;;;;;;47.33;36.10;;;17.70;99.90;;;;;;5096306;28;20340;-45
2021/06/08 06:50:40;;;;;;;45.70;36.55;;;17.70;99.90;;;;;;5091903;28;20103;-45
2021/06/08 06:53:06;;;;;;;53.17;38.53;;;17.80;99.90;;;;;;5093401;28;20208;-44
2021/06/08 06:55:33;;;;;;;44.65;33.35;;;17.80;99.90;;;;;;5090014;28;20028;-44
2021/06/08 06:57:59;;;;;;;49.22;36.88;;;17.80;99.90;;;;;;5107596;28;20046;-44
2021/06/08 07:00:27;;;;;;;51.53;36.90;;;17.90;99.90;;;;;;5099161;28;20030;-44
2021/06/08 07:02:55;;;;;;;50.30;34.58;;;17.90;99.90;;;;;;5085705;28;20032;-45
2021/06/08 07:05:24;;;;;;;47.45;36.25;;;18.00;99.90;;;;;;5085223;28;20038;-44
2021/06/08 07:07:51;;;;;;;46.67;33.70;;;18.10;99.90;;;;;;5112991;28;20023;-44
2021/06/08 07:10:20;;;;;;;38.30;31.40;;;18.20;99.90;;;;;;5099943;27;20517;-45
2021/06/08 07:12:47;;;;;;;49.05;36.30;;;18.20;99.90;;;;;;5085791;28;20750;-44
2021/06/08 07:15:14;;;;;;;43.75;33.83;;;18.30;99.90;;;;;;5115713;27;20473;-44
2021/06/08 07:17:40;;;;;;;44.85;33.03;;;18.30;99.90;;;;;;5128177;27;20077;-44
2021/06/08 07:20:09;;;;;;;52.95;36.20;;;18.40;99.90;;;;;;5111832;27;20481;-43
2021/06/08 07:22:36;;;;;;;39.88;31.52;;;18.30;99.90;;;;;;5113936;28;20022;-43
2021/06/08 07:25:03;;;;;;;44.45;33.60;;;18.40;99.90;;;;;;5110368;27;20042;-43
2021/06/08 07:27:29;;;;;;;38.47;30.10;;;18.40;99.90;;;;;;5110038;28;20038;-44
2021/06/08 07:29:55;;;;;;;42.67;30.90;;;18.40;99.90;;;;;;5116378;28;20404;-43
2021/06/08 07:32:24;;;;;;;43.75;32.63;;;18.40;99.90;;;;;;5112613;28;20524;-43
2021/06/08 07:35:00;;;;;;;43.90;32.65;;;18.40;99.90;;;;;;5120776;28;20473;-43
2021/06/08 07:37:28;;;;;;;40.65;31.60;;;18.40;99.90;;;;;;5108005;28;20425;-44
2021/06/08 07:40:10;;;;;;;36.97;30.25;;;18.60;99.90;;;;;;5109923;28;20034;-44
2021/06/08 07:42:43;;;;;;;45.45;31.38;;;18.70;99.90;;;;;;5109026;27;20027;-48
2021/06/08 07:45:12;;;;;;;51.20;33.97;;;18.80;99.90;;;;;;5121111;27;20014;-45
2021/06/08 07:47:39;;;;;;;40.80;30.75;;;19.00;99.90;;;;;;5111083;28;20020;-44
2021/06/08 07:50:07;;;;;;;42.25;31.00;;;19.00;99.90;;;;;;5110505;28;20114;-44
2021/06/08 07:52:33;;;;;;;38.83;30.10;;;19.00;99.90;;;;;;5090994;28;20563;-45
2021/06/08 07:54:59;;;;;;;40.10;30.33;;;19.00;99.90;;;;;;5091033;28;20470;-45
2021/06/08 07:57:26;;;;;;;42.17;32.15;;;19.10;99.90;;;;;;5090950;28;20016;-45
2021/06/08 07:59:52;;;;;;;36.85;28.27;;;19.20;99.90;;;;;;5093022;28;20024;-45
2021/06/08 08:02:19;;;;;;;33.63;27.15;;;19.40;99.90;;;;;;5110986;27;20028;-44
2021/06/08 08:04:52;;;;;;;33.03;26.40;;;19.60;99.90;;;;;;5110683;27;20348;-44
2021/06/08 08:07:26;;;;;;;29.38;24.50;;;19.90;99.90;;;;;;5110443;28;20047;-44
2021/06/08 08:09:53;;;;;;;31.75;23.33;;;20.10;99.90;;;;;;5108859;28;20040;-45
2021/06/08 08:12:19;;;;;;;33.20;24.65;;;20.50;99.90;;;;;;5088784;28;20557;-44
2021/06/08 08:14:47;;;;;;;28.30;23.08;;;21.00;99.90;;;;;;5112136;27;20107;-46
2021/06/08 08:17:14;;;;;;;24.77;21.90;;;21.30;99.90;;;;;;5111520;27;20027;-45
2021/06/08 08:19:41;;;;;;;26.45;21.33;;;22.00;99.90;;;;;;5129494;27;20016;-44
2021/06/08 08:22:07;;;;;;;30.17;22.73;;;22.20;99.90;;;;;;5110117;28;20035;-45
2021/06/08 08:24:34;;;;;;;26.20;20.55;;;22.40;99.90;;;;;;5110305;28;20031;-45
2021/06/08 08:27:03;;;;;;;27.48;21.52;;;22.30;99.90;;;;;;5091255;28;20397;-45
2021/06/08 08:29:30;;;;;;;26.33;19.07;;;22.30;99.90;;;;;;5089642;28;20066;-45
2021/06/08 08:31:56;;;;;;;29.17;22.00;;;22.50;99.90;;;;;;5112801;27;20293;-45
2021/06/08 08:34:22;;;;;;;31.52;25.10;;;22.50;99.90;;;;;;5090014;28;20028;-45
2021/06/08 08:36:47;;;;;;;23.08;19.52;;;22.40;99.90;;;;;;5090091;28;20028;-45
2021/06/08 08:39:13;;;;;;;26.65;20.00;;;22.90;99.90;;;;;;5089574;28;20020;-45
2021/06/08 08:41:40;;;;;;;20.95;17.17;;;23.10;99.90;;;;;;5088992;28;20386;-45
2021/06/08 08:44:09;;;;;;;23.50;19.20;;;23.90;99.90;;;;;;5107096;27;20027;-45
2021/06/08 08:46:36;;;;;;;21.50;16.33;;;24.20;99.90;;;;;;5123901;27;20027;-47
2021/06/08 08:49:03;;;;;;;24.48;21.27;;;24.80;99.90;;;;;;5129188;27;20169;-45
2021/06/08 08:51:30;;;;;;;20.63;16.60;;;25.80;99.40;;;;;;5109634;27;20032;-48
2021/06/08 08:53:57;;;;;;;19.20;16.40;;;26.40;98.30;;;;;;5109719;28;20059;-46
2021/06/08 08:56:35;;;;;;;17.92;15.82;;;26.60;96.40;;;;;;5099013;28;20020;-45
2021/06/08 08:59:03;;;;;;;17.10;14.68;;;26.70;93.80;;;;;;5088804;28;20028;-45
2021/06/08 09:01:29;;;;;;;20.10;15.00;;;27.00;94.20;;;;;;5103727;27;20361;-46
2021/06/08 09:03:55;;;;;;;14.60;12.85;;;27.40;93.70;;;;;;5112277;27;20080;-48
2021/06/08 09:06:21;;;;;;;15.38;12.57;;;28.40;90.60;;;;;;5107332;27;20035;-46
2021/06/08 09:08:47;;;;;;;17.48;14.00;;;30.00;80.80;;;;;;5102369;27;20041;-46
2021/06/08 09:11:13;;;;;;;18.08;15.77;;;30.30;74.40;;;;;;5101170;27;20539;-46
2021/06/08 09:13:42;;;;;;;12.82;11.52;;;31.10;68.00;;;;;;5114055;27;20012;-45
2021/06/08 09:16:09;;;;;;;13.65;11.95;;;30.80;70.80;;;;;;5120997;27;20019;-45
2021/06/08 09:18:35;;;;;;;19.05;15.98;;;31.10;68.00;;;;;;5130025;27;20507;-46
2021/06/08 09:21:16;;;;;;;12.15;10.60;;;30.60;65.60;;;;;;5129173;27;20261;-48
2021/06/08 09:23:43;;;;;;;14.02;12.55;;;30.80;66.80;;;;;;5128288;27;20430;-46
2021/06/08 09:26:09;;;;;;;12.45;10.85;;;31.20;66.30;;;;;;5121642;27;20023;-46
2021/06/08 09:28:36;;;;;;;14.98;13.57;;;32.10;65.90;;;;;;5103867;27;20035;-46
2021/06/08 09:31:10;;;;;;;12.85;11.55;;;32.30;61.50;;;;;;5098325;27;20032;-46
2021/06/08 09:33:51;;;;;;;16.73;14.93;;;32.40;61.80;;;;;;5095720;27;20509;-45
2021/06/08 09:36:19;;;;;;;16.27;12.20;;;32.50;59.80;;;;;;5091203;28;20020;-47
2021/06/08 09:39:02;;;;;;;14.45;12.25;;;32.60;61.40;;;;;;5097197;28;20012;-49
2021/06/08 09:41:49;;;;;;;15.25;12.88;;;32.50;60.80;;;;;;5097091;28;20114;-48
2021/06/08 09:44:16;;;;;;;14.63;13.07;;;33.40;57.70;;;;;;5098283;28;20229;-50
2021/06/08 09:46:46;;;;;;;15.10;13.40;;;33.00;57.90;;;;;;5096630;28;20501;-47
2021/06/08 09:49:14;;;;;;;12.48;10.80;;;33.20;57.10;;;;;;5108629;28;20015;-47
2021/06/08 09:51:57;;;;;;;11.45;10.15;;;33.80;58.20;;;;;;5108873;28;20026;-46
2021/06/08 09:54:31;;;;;;;16.63;11.55;;;34.00;54.90;;;;;;5109051;28;20077;-49
2021/06/08 09:57:17;;;;;;;13.27;11.63;;;33.10;58.40;;;;;;5105055;28;20016;-47
2021/06/08 09:59:48;;;;;;;13.73;12.45;;;32.50;56.50;;;;;;5087605;28;20052;-50
2021/06/08 10:02:25;;;;;;;14.27;12.93;;;33.10;60.80;;;;;;5087905;28;20032;-47
2021/06/08 10:04:52;;;;;;;13.82;11.38;;;33.00;58.90;;;;;;5087089;28;20104;-46
2021/06/08 10:07:31;;;;;;;14.63;12.93;;;33.90;55.20;;;;;;5093844;27;20080;-48
2021/06/08 10:10:23;;;;;;;16.27;14.57;;;33.60;53.60;;;;;;5119489;27;20055;-47
2021/06/08 10:13:04;;;;;;;12.45;11.15;;;32.60;57.20;;;;;;5111665;27;20047;-46
2021/06/08 10:15:33;;;;;;;14.60;12.25;;;33.10;58.10;;;;;;5087963;28;20088;-47
2021/06/08 10:18:09;;;;;;;14.23;11.18;;;33.60;56.10;;;;;;5087695;28;20488;-47
2021/06/08 10:20:39;;;;;;;15.20;13.60;;;33.60;56.90;;;;;;5086977;28;20122;-47
2021/06/08 10:23:24;;;;;;;14.60;11.25;;;33.30;55.70;;;;;;5087946;28;20028;-46
2021/06/08 10:25:58;;;;;;;11.30;10.20;;;33.20;57.80;;;;;;5087892;28;20486;-47
2021/06/08 10:28:25;;;;;;;14.80;12.98;;;33.70;56.80;;;;;;5096490;28;20065;-47
2021/06/08 10:30:51;;;;;;;12.95;11.80;;;34.20;54.20;;;;;;5107570;28;20035;-49
2021/06/08 10:33:17;;;;;;;12.25;10.65;;;34.50;53.70;;;;;;5109595;27;20035;-48
2021/06/08 10:35:44;;;;;;;12.65;11.38;;;34.00;54.80;;;;;;5100862;27;20020;-50
2021/06/08 10:38:12;;;;;;;13.80;12.30;;;34.20;54.80;;;;;;5090380;28;20024;-48
2021/06/08 10:40:40;;;;;;;11.55;10.35;;;34.50;54.60;;;;;;5086914;28;20047;-50
2021/06/08 10:43:12;;;;;;;10.52;9.63;;;34.60;55.30;;;;;;5092560;28;20019;-47
2021/06/08 10:45:39;;;;;;;11.40;10.40;;;34.90;56.20;;;;;;5109979;27;20020;-47
2021/06/08 10:48:08;;;;;;;11.40;9.85;;;34.90;54.50;;;;;;5126251;28;20056;-48
2021/06/08 10:50:36;;;;;;;11.27;10.07;;;34.80;54.80;;;;;;5109966;27;20031;-47
2021/06/08 10:53:03;;;;;;;14.23;10.02;;;35.00;56.10;;;;;;5098217;28;20024;-47
2021/06/08 10:55:38;;;;;;;12.30;10.23;;;35.40;53.40;;;;;;5088838;28;20026;-50
2021/06/08 10:58:05;;;;;;;14.52;10.43;;;35.60;50.00;;;;;;5091172;28;20011;-47
2021/06/08 11:00:42;;;;;;;12.00;10.60;;;36.00;49.50;;;;;;5106708;28;20095;-47
2021/06/08 11:03:10;;;;;;;12.40;11.02;;;36.50;49.70;;;;;;5106078;28;20084;-48
2021/06/08 11:05:56;;;;;;;9.98;9.07;;;35.40;50.60;;;;;;5094776;28;20031;-48
2021/06/08 11:09:00;;;;;;;10.90;9.80;;;35.70;51.30;;;;;;5097271;28;20089;-47
2021/06/08 11:12:03;;;;;;;10.75;9.65;;;35.30;51.60;;;;;;5097030;28;20032;-46
2021/06/08 11:14:41;;;;;;;12.55;11.27;;;34.00;52.80;;;;;;5038569;28;20569;-46
2021/06/08 11:17:27;;;;;;;14.60;12.10;;;32.40;54.70;;;;;;5098393;27;20036;-47
2021/06/08 11:20:05;;;;;;;12.80;11.60;;;31.40;58.00;;;;;;5098626;28;20480;-46
2021/06/08 11:22:33;;;;;;;12.30;11.05;;;31.60;60.40;;;;;;5102269;28;20073;-46
2021/06/08 11:25:00;;;;;;;14.50;11.57;;;30.90;59.30;;;;;;5100253;28;20081;-49
2021/06/08 11:27:55;;;;;;;15.23;13.13;;;31.20;59.90;;;;;;5100327;28;20102;-49
2021/06/08 11:30:26;;;;;;;12.52;11.40;;;31.90;61.70;;;;;;5097058;28;20515;-46
2021/06/08 11:32:52;;;;;;;14.23;12.60;;;32.00;59.40;;;;;;5102514;27;20046;-47
2021/06/08 11:35:29;;;;;;;11.52;10.35;;;31.60;58.50;;;;;;5108271;27;20022;-46
2021/06/08 11:38:05;;;;;;;12.50;11.38;;;31.30;60.20;;;;;;5101624;28;20209;-46
2021/06/08 11:40:38;;;;;;;13.55;12.07;;;30.70;60.50;;;;;;5099821;28;20032;-47
2021/06/08 11:43:10;;;;;;;15.10;13.32;;;30.30;60.70;;;;;;5098569;28;20020;-47
2021/06/08 11:45:41;;;;;;;13.93;12.48;;;30.10;61.90;;;;;;5105034;27;20038;-47
2021/06/08 11:48:28;;;;;;;13.45;12.05;;;30.50;62.40;;;;;;5102377;27;20016;-46
2021/06/08 11:50:53;;;;;;;16.63;14.02;;;30.30;64.40;;;;;;5100711;28;20019;-46
2021/06/08 11:53:19;;;;;;;14.02;12.63;;;30.00;62.20;;;;;;5095729;28;20138;-45
2021/06/08 11:56:09;;;;;;;13.15;11.75;;;29.30;62.60;;;;;;5099937;28;20393;-46
2021/06/08 11:58:37;;;;;;;13.27;11.98;;;29.30;62.90;;;;;;5100145;28;20020;-46
2021/06/08 12:01:05;;;;;;;14.30;12.95;;;29.10;64.30;;;;;;5099509;28;20023;-47
2021/06/08 12:03:36;;;;;;;14.55;13.05;;;28.90;65.50;;;;;;5101480;27;20028;-45
2021/06/08 12:06:04;;;;;;;16.45;13.85;;;28.40;68.20;;;;;;5099961;28;20371;-46
2021/06/08 12:08:36;;;;;;;15.02;12.95;;;28.10;69.10;;;;;;5099084;27;20025;-46
2021/06/08 12:11:17;;;;;;;17.88;15.98;;;27.80;71.00;;;;;;5106260;27;20074;-46
2021/06/08 12:13:44;;;;;;;15.35;13.85;;;27.30;71.90;;;;;;5099181;28;20020;-46
2021/06/08 12:16:14;;;;;;;14.85;13.38;;;27.00;70.70;;;;;;5108663;27;20381;-45
2021/06/08 12:18:39;;;;;;;;;;;26.90;71.80;;;;;;5099961;28;20091;-48
2021/06/08 12:21:19;;;;;;;15.02;13.52;;;26.40;72.30;;;;;;5098981;28;19919;-49
2021/06/08 12:23:45;;;;;;;18.38;14.30;;;26.30;72.70;;;;;;5104551;28;20483;-48
2021/06/08 12:26:18;;;;;;;13.80;12.27;;;26.20;73.50;;;;;;5106065;28;20375;-46
2021/06/08 12:29:05;;;;;;;14.85;13.35;;;26.30;74.90;;;;;;5099467;28;20020;-46
2021/06/08 12:31:31;;;;;;;13.15;11.50;;;26.30;74.20;;;;;;5098812;28;20038;-46
2021/06/08 12:33:57;;;;;;;12.82;11.27;;;26.90;73.40;;;;;;5099010;27;20031;-46
2021/06/08 12:36:24;;;;;;;12.10;11.00;;;27.60;70.80;;;;;;5107224;27;20020;-45
2021/06/08 12:38:54;;;;;;;11.80;10.55;;;27.50;69.60;;;;;;5098801;28;20530;-47